sensor_id;sensor_type;location;lat;lon;timestamp;P1;durP1;ratioP1;P2;durP2;ratioP2
18574;SDS011;9417;16.484;102.872;2023-07-31T00:00:31;52.50;;;36.15;;
18574;SDS011;9417;16.484;102.872;2023-07-31T00:02:39;40.72;;;29.10;;
18574;SDS011;9417;16.484;102.872;2023-07-31T00:04:47;30.58;;;19.25;;
18574;SDS011;9417;16.484;102.872;2023-07-31T00:06:53;27.50;;;24.55;;
18574;SDS011;9417;16.484;102.872;2023-07-31T00:09:00;17.63;;;10.35;;
18574;SDS011;9417;16.484;102.872;2023-07-31T00:11:08;17.25;;;9.35;;
18574;SDS011;9417;16.484;102.872;2023-07-31T00:13:15;19.05;;;14.20;;
18574;SDS011;9417;16.484;102.872;2023-07-31T00:15:22;22.77;;;19.65;;
18574;SDS011;9417;16.484;102.872;2023-07-31T00:17:32;22.77;;;20.35;;
18574;SDS011;9417;16.484;102.872;2023-07-31T00:19:39;22.63;;;20.23;;
18574;SDS011;9417;16.484;102.872;2023-07-31T00:21:47;13.90;;;8.30;;
18574;SDS011;9417;16.484;102.872;2023-07-31T00:23:54;15.95;;;8.60;;
18574;SDS011;9417;16.484;102.872;2023-07-31T00:26:01;9.68;;;7.50;;
18574;SDS011;9417;16.484;102.872;2023-07-31T00:28:09;12.63;;;8.63;;
18574;SDS011;9417;16.484;102.872;2023-07-31T00:30:17;11.75;;;7.93;;
18574;SDS011;9417;16.484;102.872;2023-07-31T00:32:24;13.60;;;7.50;;
18574;SDS011;9417;16.484;102.872;2023-07-31T00:34:36;15.85;;;8.35;;
18574;SDS011;9417;16.484;102.872;2023-07-31T00:36:43;12.00;;;7.63;;
18574;SDS011;9417;16.484;102.872;2023-07-31T00:38:51;19.13;;;8.57;;
18574;SDS011;9417;16.484;102.872;2023-07-31T00:40:58;14.43;;;7.57;;
18574;SDS011;9417;16.484;102.872;2023-07-31T00:43:06;12.52;;;8.13;;
18574;SDS011;9417;16.484;102.872;2023-07-31T00:45:13;12.77;;;7.55;;
18574;SDS011;9417;16.484;102.872;2023-07-31T00:47:21;16.35;;;8.15;;
18574;SDS011;9417;16.484;102.872;2023-07-31T00:49:27;10.60;;;8.25;;
18574;SDS011;9417;16.484;102.872;2023-07-31T00:51:37;13.48;;;8.73;;
18574;SDS011;9417;16.484;102.872;2023-07-31T00:53:44;14.00;;;8.15;;
18574;SDS011;9417;16.484;102.872;2023-07-31T00:55:52;15.98;;;8.70;;
18574;SDS011;9417;16.484;102.872;2023-07-31T00:58:00;13.07;;;8.85;;
18574;SDS011;9417;16.484;102.872;2023-07-31T01:00:08;16.92;;;9.93;;
18574;SDS011;9417;16.484;102.872;2023-07-31T01:02:16;16.23;;;9.52;;
18574;SDS011;9417;16.484;102.872;2023-07-31T01:04:23;14.48;;;9.95;;
18574;SDS011;9417;16.484;102.872;2023-07-31T01:06:34;13.60;;;9.07;;
18574;SDS011;9417;16.484;102.872;2023-07-31T01:08:51;16.42;;;10.00;;
18574;SDS011;9417;16.484;102.872;2023-07-31T01:11:07;15.10;;;8.68;;
18574;SDS011;9417;16.484;102.872;2023-07-31T01:13:19;15.02;;;9.35;;
18574;SDS011;9417;16.484;102.872;2023-07-31T01:15:27;16.58;;;9.00;;
18574;SDS011;9417;16.484;102.872;2023-07-31T01:17:34;12.30;;;8.80;;
18574;SDS011;9417;16.484;102.872;2023-07-31T01:19:41;15.00;;;8.30;;
18574;SDS011;9417;16.484;102.872;2023-07-31T01:21:56;14.80;;;7.47;;
18574;SDS011;9417;16.484;102.872;2023-07-31T01:24:23;11.15;;;7.78;;
18574;SDS011;9417;16.484;102.872;2023-07-31T01:26:39;11.10;;;8.18;;
18574;SDS011;9417;16.484;102.872;2023-07-31T01:28:54;13.80;;;9.30;;
18574;SDS011;9417;16.484;102.872;2023-07-31T01:31:07;15.07;;;9.20;;
18574;SDS011;9417;16.484;102.872;2023-07-31T01:33:20;14.80;;;9.30;;
18574;SDS011;9417;16.484;102.872;2023-07-31T01:35:28;14.95;;;8.98;;
18574;SDS011;9417;16.484;102.872;2023-07-31T01:37:35;11.70;;;8.23;;
18574;SDS011;9417;16.484;102.872;2023-07-31T01:39:43;13.77;;;8.40;;
18574;SDS011;9417;16.484;102.872;2023-07-31T01:41:52;14.57;;;8.60;;
18574;SDS011;9417;16.484;102.872;2023-07-31T01:43:59;14.77;;;9.07;;
18574;SDS011;9417;16.484;102.872;2023-07-31T01:46:07;15.18;;;9.38;;
18574;SDS011;9417;16.484;102.872;2023-07-31T01:48:15;13.73;;;8.55;;
18574;SDS011;9417;16.484;102.872;2023-07-31T01:50:22;13.50;;;8.82;;
18574;SDS011;9417;16.484;102.872;2023-07-31T01:52:29;16.75;;;9.00;;
18574;SDS011;9417;16.484;102.872;2023-07-31T01:54:36;16.25;;;8.93;;
18574;SDS011;9417;16.484;102.872;2023-07-31T01:56:44;14.45;;;9.35;;
18574;SDS011;9417;16.484;102.872;2023-07-31T01:58:53;13.00;;;8.60;;
18574;SDS011;9417;16.484;102.872;2023-07-31T02:01:01;12.73;;;8.82;;
18574;SDS011;9417;16.484;102.872;2023-07-31T02:03:09;13.98;;;9.07;;
18574;SDS011;9417;16.484;102.872;2023-07-31T02:05:16;14.15;;;8.75;;
18574;SDS011;9417;16.484;102.872;2023-07-31T02:07:24;16.90;;;9.82;;
18574;SDS011;9417;16.484;102.872;2023-07-31T02:09:31;14.43;;;9.55;;
18574;SDS011;9417;16.484;102.872;2023-07-31T02:11:39;14.95;;;10.63;;
18574;SDS011;9417;16.484;102.872;2023-07-31T02:13:46;13.90;;;8.68;;
18574;SDS011;9417;16.484;102.872;2023-07-31T02:15:55;13.50;;;8.98;;
18574;SDS011;9417;16.484;102.872;2023-07-31T02:18:01;13.80;;;8.63;;
18574;SDS011;9417;16.484;102.872;2023-07-31T02:20:09;16.52;;;9.68;;
18574;SDS011;9417;16.484;102.872;2023-07-31T02:22:15;15.20;;;8.77;;
18574;SDS011;9417;16.484;102.872;2023-07-31T02:24:22;13.63;;;8.50;;
18574;SDS011;9417;16.484;102.872;2023-07-31T02:26:33;18.70;;;8.23;;
18574;SDS011;9417;16.484;102.872;2023-07-31T02:28:40;16.77;;;8.93;;
18574;SDS011;9417;16.484;102.872;2023-07-31T02:30:49;14.50;;;9.48;;
18574;SDS011;9417;16.484;102.872;2023-07-31T02:32:59;18.95;;;9.32;;
18574;SDS011;9417;16.484;102.872;2023-07-31T02:35:06;16.02;;;9.77;;
18574;SDS011;9417;16.484;102.872;2023-07-31T02:37:18;13.10;;;8.00;;
18574;SDS011;9417;16.484;102.872;2023-07-31T02:39:25;13.27;;;8.73;;
18574;SDS011;9417;16.484;102.872;2023-07-31T02:41:33;15.38;;;8.07;;
18574;SDS011;9417;16.484;102.872;2023-07-31T02:43:40;19.33;;;8.38;;
18574;SDS011;9417;16.484;102.872;2023-07-31T02:45:51;13.57;;;8.10;;
18574;SDS011;9417;16.484;102.872;2023-07-31T02:48:00;16.27;;;8.80;;
18574;SDS011;9417;16.484;102.872;2023-07-31T02:50:08;15.25;;;8.48;;
18574;SDS011;9417;16.484;102.872;2023-07-31T02:52:16;15.10;;;8.75;;
18574;SDS011;9417;16.484;102.872;2023-07-31T02:54:23;13.45;;;8.25;;
18574;SDS011;9417;16.484;102.872;2023-07-31T02:56:31;11.05;;;7.97;;
18574;SDS011;9417;16.484;102.872;2023-07-31T02:58:38;13.85;;;8.25;;
18574;SDS011;9417;16.484;102.872;2023-07-31T03:00:45;14.15;;;8.15;;
18574;SDS011;9417;16.484;102.872;2023-07-31T03:02:53;13.57;;;8.68;;
18574;SDS011;9417;16.484;102.872;2023-07-31T03:05:02;16.52;;;8.93;;
18574;SDS011;9417;16.484;102.872;2023-07-31T03:07:10;17.60;;;8.85;;
18574;SDS011;9417;16.484;102.872;2023-07-31T03:09:17;14.63;;;8.68;;
18574;SDS011;9417;16.484;102.872;2023-07-31T03:11:24;10.95;;;7.88;;
18574;SDS011;9417;16.484;102.872;2023-07-31T03:13:33;12.85;;;8.30;;
18574;SDS011;9417;16.484;102.872;2023-07-31T03:15:42;15.73;;;9.10;;
18574;SDS011;9417;16.484;102.872;2023-07-31T03:17:49;13.73;;;9.10;;
18574;SDS011;9417;16.484;102.872;2023-07-31T03:19:57;13.65;;;8.23;;
18574;SDS011;9417;16.484;102.872;2023-07-31T03:22:06;14.35;;;7.43;;
18574;SDS011;9417;16.484;102.872;2023-07-31T03:24:13;12.32;;;7.53;;
18574;SDS011;9417;16.484;102.872;2023-07-31T03:26:21;11.60;;;7.65;;
18574;SDS011;9417;16.484;102.872;2023-07-31T03:28:28;13.98;;;7.85;;
18574;SDS011;9417;16.484;102.872;2023-07-31T03:30:36;11.07;;;7.75;;
18574;SDS011;9417;16.484;102.872;2023-07-31T03:32:43;17.08;;;8.48;;
18574;SDS011;9417;16.484;102.872;2023-07-31T03:34:50;13.65;;;7.68;;
18574;SDS011;9417;16.484;102.872;2023-07-31T03:36:58;12.35;;;7.95;;
18574;SDS011;9417;16.484;102.872;2023-07-31T03:39:07;13.43;;;7.88;;
18574;SDS011;9417;16.484;102.872;2023-07-31T03:41:14;13.57;;;7.35;;
18574;SDS011;9417;16.484;102.872;2023-07-31T03:43:21;12.90;;;7.75;;
18574;SDS011;9417;16.484;102.872;2023-07-31T03:45:29;13.35;;;7.50;;
18574;SDS011;9417;16.484;102.872;2023-07-31T03:47:36;11.80;;;7.45;;
18574;SDS011;9417;16.484;102.872;2023-07-31T03:49:44;14.05;;;7.32;;
18574;SDS011;9417;16.484;102.872;2023-07-31T03:51:51;11.88;;;7.30;;
18574;SDS011;9417;16.484;102.872;2023-07-31T03:53:57;10.50;;;7.10;;
18574;SDS011;9417;16.484;102.872;2023-07-31T03:56:06;11.43;;;6.70;;
18574;SDS011;9417;16.484;102.872;2023-07-31T03:58:14;15.98;;;6.90;;
18574;SDS011;9417;16.484;102.872;2023-07-31T04:00:21;14.27;;;6.43;;
18574;SDS011;9417;16.484;102.872;2023-07-31T04:02:28;12.43;;;7.18;;
18574;SDS011;9417;16.484;102.872;2023-07-31T04:04:36;13.35;;;7.50;;
18574;SDS011;9417;16.484;102.872;2023-07-31T04:06:43;11.23;;;6.88;;
18574;SDS011;9417;16.484;102.872;2023-07-31T04:08:50;25.50;;;19.50;;
18574;SDS011;9417;16.484;102.872;2023-07-31T04:10:57;22.73;;;18.52;;
18574;SDS011;9417;16.484;102.872;2023-07-31T04:13:06;22.05;;;10.98;;
18574;SDS011;9417;16.484;102.872;2023-07-31T04:15:14;13.13;;;6.85;;
18574;SDS011;9417;16.484;102.872;2023-07-31T04:17:21;14.40;;;7.13;;
18574;SDS011;9417;16.484;102.872;2023-07-31T04:19:28;14.77;;;7.85;;
18574;SDS011;9417;16.484;102.872;2023-07-31T04:21:36;14.20;;;7.32;;
18574;SDS011;9417;16.484;102.872;2023-07-31T04:23:43;12.15;;;7.28;;
18574;SDS011;9417;16.484;102.872;2023-07-31T04:25:50;12.63;;;6.93;;
18574;SDS011;9417;16.484;102.872;2023-07-31T04:27:57;11.32;;;6.10;;
18574;SDS011;9417;16.484;102.872;2023-07-31T04:30:07;9.52;;;5.82;;
18574;SDS011;9417;16.484;102.872;2023-07-31T04:32:15;10.60;;;5.72;;
18574;SDS011;9417;16.484;102.872;2023-07-31T04:34:23;12.75;;;5.78;;
18574;SDS011;9417;16.484;102.872;2023-07-31T04:36:30;9.88;;;5.47;;
18574;SDS011;9417;16.484;102.872;2023-07-31T04:38:37;11.75;;;6.30;;
18574;SDS011;9417;16.484;102.872;2023-07-31T04:40:44;12.45;;;5.55;;
18574;SDS011;9417;16.484;102.872;2023-07-31T04:42:52;9.60;;;5.78;;
18574;SDS011;9417;16.484;102.872;2023-07-31T04:44:59;11.13;;;6.03;;
18574;SDS011;9417;16.484;102.872;2023-07-31T04:47:08;10.70;;;5.93;;
18574;SDS011;9417;16.484;102.872;2023-07-31T04:49:14;10.07;;;5.45;;
18574;SDS011;9417;16.484;102.872;2023-07-31T04:51:22;9.43;;;5.05;;
18574;SDS011;9417;16.484;102.872;2023-07-31T04:53:29;10.65;;;5.85;;
18574;SDS011;9417;16.484;102.872;2023-07-31T04:55:36;23.77;;;8.15;;
18574;SDS011;9417;16.484;102.872;2023-07-31T04:57:44;12.80;;;5.88;;
18574;SDS011;9417;16.484;102.872;2023-07-31T04:59:51;11.98;;;5.60;;
18574;SDS011;9417;16.484;102.872;2023-07-31T05:01:58;11.70;;;6.40;;
18574;SDS011;9417;16.484;102.872;2023-07-31T05:04:08;15.27;;;6.13;;
18574;SDS011;9417;16.484;102.872;2023-07-31T05:06:15;11.82;;;5.70;;
18574;SDS011;9417;16.484;102.872;2023-07-31T05:08:24;13.18;;;6.53;;
18574;SDS011;9417;16.484;102.872;2023-07-31T05:10:31;13.30;;;6.15;;
18574;SDS011;9417;16.484;102.872;2023-07-31T05:12:38;10.27;;;5.78;;
18574;SDS011;9417;16.484;102.872;2023-07-31T05:14:46;12.15;;;6.32;;
18574;SDS011;9417;16.484;102.872;2023-07-31T05:16:53;13.50;;;5.65;;
18574;SDS011;9417;16.484;102.872;2023-07-31T05:19:01;11.82;;;5.78;;
18574;SDS011;9417;16.484;102.872;2023-07-31T05:21:10;10.15;;;6.63;;
18574;SDS011;9417;16.484;102.872;2023-07-31T05:23:17;10.73;;;6.68;;
18574;SDS011;9417;16.484;102.872;2023-07-31T05:25:25;11.23;;;5.82;;
18574;SDS011;9417;16.484;102.872;2023-07-31T05:27:32;10.55;;;5.80;;
18574;SDS011;9417;16.484;102.872;2023-07-31T05:29:40;9.43;;;5.30;;
18574;SDS011;9417;16.484;102.872;2023-07-31T05:31:47;11.63;;;5.90;;
18574;SDS011;9417;16.484;102.872;2023-07-31T05:33:55;9.85;;;5.55;;
18574;SDS011;9417;16.484;102.872;2023-07-31T05:36:02;11.25;;;5.68;;
18574;SDS011;9417;16.484;102.872;2023-07-31T05:38:12;8.18;;;5.55;;
18574;SDS011;9417;16.484;102.872;2023-07-31T05:40:19;8.98;;;5.20;;
18574;SDS011;9417;16.484;102.872;2023-07-31T05:42:26;10.38;;;5.60;;
18574;SDS011;9417;16.484;102.872;2023-07-31T05:44:33;9.98;;;6.22;;
18574;SDS011;9417;16.484;102.872;2023-07-31T05:46:41;10.70;;;5.38;;
18574;SDS011;9417;16.484;102.872;2023-07-31T05:48:48;11.10;;;5.97;;
18574;SDS011;9417;16.484;102.872;2023-07-31T05:50:55;10.70;;;6.40;;
18574;SDS011;9417;16.484;102.872;2023-07-31T05:53:03;10.50;;;5.88;;
18574;SDS011;9417;16.484;102.872;2023-07-31T05:55:13;10.15;;;5.72;;
18574;SDS011;9417;16.484;102.872;2023-07-31T05:57:20;12.00;;;6.05;;
18574;SDS011;9417;16.484;102.872;2023-07-31T05:59:27;11.88;;;6.75;;
18574;SDS011;9417;16.484;102.872;2023-07-31T06:01:36;10.77;;;5.90;;
18574;SDS011;9417;16.484;102.872;2023-07-31T06:03:43;9.43;;;5.10;;
18574;SDS011;9417;16.484;102.872;2023-07-31T06:05:51;9.20;;;5.15;;
18574;SDS011;9417;16.484;102.872;2023-07-31T06:07:58;10.93;;;5.20;;
18574;SDS011;9417;16.484;102.872;2023-07-31T06:10:06;10.70;;;5.30;;
18574;SDS011;9417;16.484;102.872;2023-07-31T06:12:15;9.50;;;5.10;;
18574;SDS011;9417;16.484;102.872;2023-07-31T06:14:22;9.95;;;5.78;;
18574;SDS011;9417;16.484;102.872;2023-07-31T06:16:29;10.45;;;5.50;;
18574;SDS011;9417;16.484;102.872;2023-07-31T06:18:37;10.52;;;5.60;;
18574;SDS011;9417;16.484;102.872;2023-07-31T06:20:43;8.75;;;5.63;;
18574;SDS011;9417;16.484;102.872;2023-07-31T06:22:51;10.68;;;5.72;;
18574;SDS011;9417;16.484;102.872;2023-07-31T06:24:58;8.70;;;5.30;;
18574;SDS011;9417;16.484;102.872;2023-07-31T06:27:06;8.05;;;5.80;;
18574;SDS011;9417;16.484;102.872;2023-07-31T06:29:15;10.25;;;5.53;;
18574;SDS011;9417;16.484;102.872;2023-07-31T06:31:22;9.75;;;5.32;;
18574;SDS011;9417;16.484;102.872;2023-07-31T06:33:29;9.95;;;5.75;;
18574;SDS011;9417;16.484;102.872;2023-07-31T06:35:37;8.52;;;5.15;;
18574;SDS011;9417;16.484;102.872;2023-07-31T06:37:44;10.00;;;6.03;;
18574;SDS011;9417;16.484;102.872;2023-07-31T06:39:51;8.63;;;5.50;;
18574;SDS011;9417;16.484;102.872;2023-07-31T06:41:59;8.77;;;5.78;;
18574;SDS011;9417;16.484;102.872;2023-07-31T06:44:06;9.60;;;5.70;;
18574;SDS011;9417;16.484;102.872;2023-07-31T06:46:15;10.68;;;5.70;;
18574;SDS011;9417;16.484;102.872;2023-07-31T06:48:22;7.80;;;6.25;;
18574;SDS011;9417;16.484;102.872;2023-07-31T06:50:29;9.20;;;6.07;;
18574;SDS011;9417;16.484;102.872;2023-07-31T06:52:37;12.68;;;6.70;;
18574;SDS011;9417;16.484;102.872;2023-07-31T06:54:57;8.32;;;6.38;;
18574;SDS011;9417;16.484;102.872;2023-07-31T06:57:08;13.48;;;6.90;;
18574;SDS011;9417;16.484;102.872;2023-07-31T06:59:16;11.18;;;6.93;;
18574;SDS011;9417;16.484;102.872;2023-07-31T07:01:25;13.90;;;6.82;;
18574;SDS011;9417;16.484;102.872;2023-07-31T07:03:33;11.32;;;6.63;;
18574;SDS011;9417;16.484;102.872;2023-07-31T07:05:40;10.85;;;7.03;;
18574;SDS011;9417;16.484;102.872;2023-07-31T07:07:49;13.07;;;6.25;;
18574;SDS011;9417;16.484;102.872;2023-07-31T07:09:56;11.13;;;7.43;;
18574;SDS011;9417;16.484;102.872;2023-07-31T07:12:05;9.18;;;6.45;;
18574;SDS011;9417;16.484;102.872;2023-07-31T07:14:13;9.60;;;5.63;;
18574;SDS011;9417;16.484;102.872;2023-07-31T07:16:20;9.88;;;5.93;;
18574;SDS011;9417;16.484;102.872;2023-07-31T07:18:29;10.35;;;6.20;;
18574;SDS011;9417;16.484;102.872;2023-07-31T07:20:39;11.35;;;6.57;;
18574;SDS011;9417;16.484;102.872;2023-07-31T07:22:46;11.75;;;6.95;;
18574;SDS011;9417;16.484;102.872;2023-07-31T07:24:54;9.75;;;5.93;;
18574;SDS011;9417;16.484;102.872;2023-07-31T07:27:00;10.55;;;5.85;;
18574;SDS011;9417;16.484;102.872;2023-07-31T07:29:07;13.15;;;6.25;;
18574;SDS011;9417;16.484;102.872;2023-07-31T07:31:15;10.85;;;6.75;;
18574;SDS011;9417;16.484;102.872;2023-07-31T07:33:23;11.70;;;6.63;;
18574;SDS011;9417;16.484;102.872;2023-07-31T07:35:32;8.43;;;6.00;;
18574;SDS011;9417;16.484;102.872;2023-07-31T07:37:39;8.70;;;5.90;;
18574;SDS011;9417;16.484;102.872;2023-07-31T07:39:47;8.82;;;6.00;;
18574;SDS011;9417;16.484;102.872;2023-07-31T07:41:54;8.82;;;5.88;;
18574;SDS011;9417;16.484;102.872;2023-07-31T07:44:01;9.18;;;6.18;;
18574;SDS011;9417;16.484;102.872;2023-07-31T07:46:09;8.30;;;5.28;;
18574;SDS011;9417;16.484;102.872;2023-07-31T07:48:16;7.07;;;5.43;;
18574;SDS011;9417;16.484;102.872;2023-07-31T07:50:23;7.75;;;5.85;;
18574;SDS011;9417;16.484;102.872;2023-07-31T07:52:32;10.52;;;6.05;;
18574;SDS011;9417;16.484;102.872;2023-07-31T07:54:40;7.60;;;5.05;;
18574;SDS011;9417;16.484;102.872;2023-07-31T07:56:47;6.88;;;4.43;;
18574;SDS011;9417;16.484;102.872;2023-07-31T07:58:55;11.05;;;5.00;;
18574;SDS011;9417;16.484;102.872;2023-07-31T08:01:02;9.65;;;4.43;;
18574;SDS011;9417;16.484;102.872;2023-07-31T08:03:09;7.50;;;5.00;;
18574;SDS011;9417;16.484;102.872;2023-07-31T08:05:17;6.03;;;4.45;;
18574;SDS011;9417;16.484;102.872;2023-07-31T08:07:24;7.28;;;4.25;;
18574;SDS011;9417;16.484;102.872;2023-07-31T08:09:33;8.05;;;4.28;;
18574;SDS011;9417;16.484;102.872;2023-07-31T08:11:40;5.95;;;3.65;;
18574;SDS011;9417;16.484;102.872;2023-07-31T08:13:48;6.85;;;4.20;;
18574;SDS011;9417;16.484;102.872;2023-07-31T08:15:55;6.15;;;4.10;;
18574;SDS011;9417;16.484;102.872;2023-07-31T08:18:02;5.63;;;4.00;;
18574;SDS011;9417;16.484;102.872;2023-07-31T08:20:10;9.52;;;4.13;;
18574;SDS011;9417;16.484;102.872;2023-07-31T08:22:18;6.43;;;3.88;;
18574;SDS011;9417;16.484;102.872;2023-07-31T08:24:25;5.00;;;3.65;;
18574;SDS011;9417;16.484;102.872;2023-07-31T08:26:34;6.88;;;3.88;;
18574;SDS011;9417;16.484;102.872;2023-07-31T08:28:42;5.40;;;3.58;;
18574;SDS011;9417;16.484;102.872;2023-07-31T08:30:48;5.28;;;4.28;;
18574;SDS011;9417;16.484;102.872;2023-07-31T08:32:55;6.13;;;4.18;;
18574;SDS011;9417;16.484;102.872;2023-07-31T08:35:03;6.32;;;4.18;;
18574;SDS011;9417;16.484;102.872;2023-07-31T08:37:10;6.53;;;4.50;;
18574;SDS011;9417;16.484;102.872;2023-07-31T08:39:17;7.63;;;4.35;;
18574;SDS011;9417;16.484;102.872;2023-07-31T08:41:25;6.47;;;4.45;;
18574;SDS011;9417;16.484;102.872;2023-07-31T08:43:35;6.57;;;3.95;;
18574;SDS011;9417;16.484;102.872;2023-07-31T08:45:43;6.55;;;4.40;;
18574;SDS011;9417;16.484;102.872;2023-07-31T08:47:51;6.45;;;3.92;;
18574;SDS011;9417;16.484;102.872;2023-07-31T08:49:59;7.20;;;3.75;;
18574;SDS011;9417;16.484;102.872;2023-07-31T08:52:07;6.53;;;3.97;;
18574;SDS011;9417;16.484;102.872;2023-07-31T08:54:15;7.22;;;4.30;;
18574;SDS011;9417;16.484;102.872;2023-07-31T08:56:23;5.90;;;3.38;;
18574;SDS011;9417;16.484;102.872;2023-07-31T08:58:31;5.75;;;3.30;;
18574;SDS011;9417;16.484;102.872;2023-07-31T09:00:41;8.15;;;3.88;;
18574;SDS011;9417;16.484;102.872;2023-07-31T09:02:55;6.93;;;3.70;;
18574;SDS011;9417;16.484;102.872;2023-07-31T09:05:06;5.78;;;3.55;;
18574;SDS011;9417;16.484;102.872;2023-07-31T09:07:14;4.35;;;3.42;;
18574;SDS011;9417;16.484;102.872;2023-07-31T09:09:22;4.47;;;3.28;;
18574;SDS011;9417;16.484;102.872;2023-07-31T09:11:30;5.70;;;3.40;;
18574;SDS011;9417;16.484;102.872;2023-07-31T09:13:40;4.90;;;3.75;;
18574;SDS011;9417;16.484;102.872;2023-07-31T09:15:48;5.82;;;3.83;;
18574;SDS011;9417;16.484;102.872;2023-07-31T09:17:58;5.78;;;3.83;;
18574;SDS011;9417;16.484;102.872;2023-07-31T09:20:15;5.57;;;3.40;;
18574;SDS011;9417;16.484;102.872;2023-07-31T09:22:31;6.25;;;3.80;;
18574;SDS011;9417;16.484;102.872;2023-07-31T09:24:39;4.95;;;3.80;;
18574;SDS011;9417;16.484;102.872;2023-07-31T09:26:46;4.75;;;4.05;;
18574;SDS011;9417;16.484;102.872;2023-07-31T09:29:00;5.95;;;4.05;;
18574;SDS011;9417;16.484;102.872;2023-07-31T09:31:11;5.35;;;4.18;;
18574;SDS011;9417;16.484;102.872;2023-07-31T09:33:19;6.50;;;4.28;;
18574;SDS011;9417;16.484;102.872;2023-07-31T09:35:27;5.85;;;3.90;;
18574;SDS011;9417;16.484;102.872;2023-07-31T09:37:35;5.28;;;3.05;;
18574;SDS011;9417;16.484;102.872;2023-07-31T09:39:51;5.80;;;3.17;;
18574;SDS011;9417;16.484;102.872;2023-07-31T09:42:02;4.32;;;3.30;;
18574;SDS011;9417;16.484;102.872;2023-07-31T09:44:12;4.22;;;2.53;;
18574;SDS011;9417;16.484;102.872;2023-07-31T09:46:19;5.35;;;3.03;;
18574;SDS011;9417;16.484;102.872;2023-07-31T09:48:27;4.38;;;3.00;;
18574;SDS011;9417;16.484;102.872;2023-07-31T09:50:36;7.80;;;3.55;;
18574;SDS011;9417;16.484;102.872;2023-07-31T09:52:44;3.90;;;3.10;;
18574;SDS011;9417;16.484;102.872;2023-07-31T09:54:51;4.15;;;3.05;;
18574;SDS011;9417;16.484;102.872;2023-07-31T09:56:58;4.97;;;3.03;;
18574;SDS011;9417;16.484;102.872;2023-07-31T09:59:07;4.32;;;3.17;;
18574;SDS011;9417;16.484;102.872;2023-07-31T10:01:18;3.75;;;2.92;;
18574;SDS011;9417;16.484;102.872;2023-07-31T10:03:25;6.40;;;3.10;;
18574;SDS011;9417;16.484;102.872;2023-07-31T10:05:35;6.57;;;3.55;;
18574;SDS011;9417;16.484;102.872;2023-07-31T10:07:50;5.25;;;3.25;;
18574;SDS011;9417;16.484;102.872;2023-07-31T10:10:00;4.38;;;3.63;;
18574;SDS011;9417;16.484;102.872;2023-07-31T10:12:10;6.70;;;3.97;;
18574;SDS011;9417;16.484;102.872;2023-07-31T10:14:20;5.93;;;4.30;;
18574;SDS011;9417;16.484;102.872;2023-07-31T10:16:29;17.45;;;15.65;;
18574;SDS011;9417;16.484;102.872;2023-07-31T10:18:37;17.10;;;15.35;;
18574;SDS011;9417;16.484;102.872;2023-07-31T10:20:46;18.02;;;15.57;;
18574;SDS011;9417;16.484;102.872;2023-07-31T10:22:54;6.93;;;3.95;;
18574;SDS011;9417;16.484;102.872;2023-07-31T10:25:03;5.70;;;4.03;;
18574;SDS011;9417;16.484;102.872;2023-07-31T10:27:13;10.82;;;3.85;;
18574;SDS011;9417;16.484;102.872;2023-07-31T10:29:20;6.82;;;3.60;;
18574;SDS011;9417;16.484;102.872;2023-07-31T10:31:31;5.05;;;3.40;;
18574;SDS011;9417;16.484;102.872;2023-07-31T10:33:40;5.38;;;3.40;;
18574;SDS011;9417;16.484;102.872;2023-07-31T10:35:48;8.40;;;4.13;;
18574;SDS011;9417;16.484;102.872;2023-07-31T10:38:03;6.82;;;3.40;;
18574;SDS011;9417;16.484;102.872;2023-07-31T10:40:17;6.85;;;4.22;;
18574;SDS011;9417;16.484;102.872;2023-07-31T10:42:29;6.43;;;4.07;;
18574;SDS011;9417;16.484;102.872;2023-07-31T10:44:37;7.43;;;4.13;;
18574;SDS011;9417;16.484;102.872;2023-07-31T10:46:50;11.38;;;10.30;;
18574;SDS011;9417;16.484;102.872;2023-07-31T10:49:01;7.32;;;3.85;;
18574;SDS011;9417;16.484;102.872;2023-07-31T10:51:09;7.95;;;3.78;;
18574;SDS011;9417;16.484;102.872;2023-07-31T10:53:24;6.95;;;3.90;;
18574;SDS011;9417;16.484;102.872;2023-07-31T10:55:32;18.25;;;16.45;;
18574;SDS011;9417;16.484;102.872;2023-07-31T10:57:46;19.17;;;17.10;;
18574;SDS011;9417;16.484;102.872;2023-07-31T10:59:53;19.58;;;16.77;;
18574;SDS011;9417;16.484;102.872;2023-07-31T11:02:28;5.97;;;3.13;;
18574;SDS011;9417;16.484;102.872;2023-07-31T11:04:40;5.07;;;3.78;;
18574;SDS011;9417;16.484;102.872;2023-07-31T11:06:55;6.05;;;3.60;;
18574;SDS011;9417;16.484;102.872;2023-07-31T11:09:03;6.03;;;3.67;;
18574;SDS011;9417;16.484;102.872;2023-07-31T11:11:10;5.65;;;3.70;;
18574;SDS011;9417;16.484;102.872;2023-07-31T11:13:19;5.25;;;3.10;;
18574;SDS011;9417;16.484;102.872;2023-07-31T11:15:26;6.93;;;3.60;;
18574;SDS011;9417;16.484;102.872;2023-07-31T11:17:35;4.95;;;3.55;;
18574;SDS011;9417;16.484;102.872;2023-07-31T11:19:45;5.63;;;3.08;;
18574;SDS011;9417;16.484;102.872;2023-07-31T11:21:56;5.77;;;3.17;;
18574;SDS011;9417;16.484;102.872;2023-07-31T11:24:05;6.25;;;3.58;;
18574;SDS011;9417;16.484;102.872;2023-07-31T11:26:12;6.25;;;4.05;;
18574;SDS011;9417;16.484;102.872;2023-07-31T11:28:20;7.90;;;4.22;;
18574;SDS011;9417;16.484;102.872;2023-07-31T11:30:27;7.05;;;4.18;;
18574;SDS011;9417;16.484;102.872;2023-07-31T11:32:37;5.70;;;4.13;;
18574;SDS011;9417;16.484;102.872;2023-07-31T11:34:52;4.97;;;4.05;;
18574;SDS011;9417;16.484;102.872;2023-07-31T11:36:59;5.50;;;3.70;;
18574;SDS011;9417;16.484;102.872;2023-07-31T11:39:09;7.32;;;4.35;;
18574;SDS011;9417;16.484;102.872;2023-07-31T11:41:16;6.95;;;4.53;;
18574;SDS011;9417;16.484;102.872;2023-07-31T11:43:24;8.02;;;4.43;;
18574;SDS011;9417;16.484;102.872;2023-07-31T11:45:30;7.75;;;4.30;;
18574;SDS011;9417;16.484;102.872;2023-07-31T11:47:40;8.43;;;4.35;;
18574;SDS011;9417;16.484;102.872;2023-07-31T11:49:47;6.47;;;3.97;;
18574;SDS011;9417;16.484;102.872;2023-07-31T11:51:56;5.13;;;4.30;;
18574;SDS011;9417;16.484;102.872;2023-07-31T11:54:03;10.57;;;4.80;;
18574;SDS011;9417;16.484;102.872;2023-07-31T11:56:12;8.50;;;4.63;;
18574;SDS011;9417;16.484;102.872;2023-07-31T11:58:22;8.48;;;4.55;;
18574;SDS011;9417;16.484;102.872;2023-07-31T12:00:29;6.35;;;4.15;;
18574;SDS011;9417;16.484;102.872;2023-07-31T12:02:37;8.60;;;4.60;;
18574;SDS011;9417;16.484;102.872;2023-07-31T12:04:47;6.72;;;4.95;;
18574;SDS011;9417;16.484;102.872;2023-07-31T12:06:54;8.02;;;4.55;;
18574;SDS011;9417;16.484;102.872;2023-07-31T12:09:03;7.38;;;4.82;;
18574;SDS011;9417;16.484;102.872;2023-07-31T12:11:10;12.90;;;7.10;;
18574;SDS011;9417;16.484;102.872;2023-07-31T12:13:20;9.38;;;5.72;;
18574;SDS011;9417;16.484;102.872;2023-07-31T12:15:34;9.07;;;5.53;;
18574;SDS011;9417;16.484;102.872;2023-07-31T12:17:43;12.82;;;8.05;;
18574;SDS011;9417;16.484;102.872;2023-07-31T12:19:54;10.65;;;6.28;;
18574;SDS011;9417;16.484;102.872;2023-07-31T12:22:10;7.88;;;5.60;;
18574;SDS011;9417;16.484;102.872;2023-07-31T12:24:18;9.52;;;6.80;;
18574;SDS011;9417;16.484;102.872;2023-07-31T12:26:33;9.13;;;6.68;;
18574;SDS011;9417;16.484;102.872;2023-07-31T12:28:41;9.85;;;6.38;;
18574;SDS011;9417;16.484;102.872;2023-07-31T12:30:49;12.13;;;7.35;;
18574;SDS011;9417;16.484;102.872;2023-07-31T12:32:58;14.73;;;9.45;;
18574;SDS011;9417;16.484;102.872;2023-07-31T12:35:10;12.77;;;9.02;;